Time;durP1;ratioP1;P1;durP2;ratioP2;P2;SDS_P1;SDS_P2;PMS_P1;PMS_P2;Temp;Humidity;BMP_temperature;BMP_pressure;BME280_temperature;BME280_humidity;BME280_pressure;Samples;Min_cycle;Max_cycle;Signal;HPM_P1;HPM_P2
2023/04/13 00:01:39;;;;;;;14.53;8.83;;;12.00;96.50;;;;;;5017508;28;20198;-72
2023/04/13 00:04:08;;;;;;;15.37;8.03;;;12.10;96.60;;;;;;5009220;28;20713;-73
2023/04/13 00:06:41;;;;;;;11.63;7.40;;;12.10;96.70;;;;;;5017841;28;20209;-73
2023/04/13 00:09:08;;;;;;;16.10;9.13;;;12.10;96.60;;;;;;4999986;28;20198;-73
2023/04/13 00:11:40;;;;;;;15.90;9.00;;;12.20;96.70;;;;;;5009545;28;20325;-73
2023/04/13 00:14:09;;;;;;;14.37;9.00;;;12.10;96.60;;;;;;5019345;28;20191;-73
2023/04/13 00:16:39;;;;;;;13.83;8.20;;;12.20;96.60;;;;;;5021116;28;20234;-73
2023/04/13 00:19:08;;;;;;;13.70;8.60;;;12.20;96.60;;;;;;5020517;28;20292;-74
2023/04/13 00:21:40;;;;;;;13.20;7.80;;;12.20;96.60;;;;;;5001903;28;20209;-73
2023/04/13 00:24:08;;;;;;;11.97;7.57;;;12.10;96.70;;;;;;5021326;28;20574;-73
2023/04/13 00:26:35;;;;;;;11.00;6.50;;;12.10;97.00;;;;;;5019731;28;20195;-73
2023/04/13 00:29:05;;;;;;;12.97;7.80;;;12.10;96.80;;;;;;5000005;28;20216;-73
2023/04/13 00:31:44;;;;;;;;;;;;;;;;;;;;;
2023/04/13 00:34:51;;;;;;;13.30;7.80;;;12.00;96.80;;;;;;5019362;28;20205;-72
2023/04/13 00:37:18;;;;;;;9.43;6.23;;;11.90;97.00;;;;;;5031862;28;20211;-72
2023/04/13 00:39:47;;;;;;;12.63;7.77;;;11.90;96.90;;;;;;5020162;28;20194;-73
2023/04/13 00:42:14;;;;;;;11.93;7.30;;;11.90;96.90;;;;;;5001905;28;20222;-72
2023/04/13 00:44:47;;;;;;;13.00;8.63;;;11.90;96.90;;;;;;5017475;28;20297;-72
2023/04/13 00:47:16;;;;;;;18.83;11.10;;;11.90;97.00;;;;;;5018128;28;20198;-73
2023/04/13 00:49:44;;;;;;;14.37;9.60;;;11.90;97.30;;;;;;5019359;28;20212;-73
2023/04/13 00:52:15;;;;;;;12.83;9.17;;;11.90;97.00;;;;;;5020753;28;20209;-73
2023/04/13 00:54:42;;;;;;;13.67;9.13;;;11.90;96.90;;;;;;5019012;28;20614;-74
2023/04/13 00:57:09;;;;;;;16.30;9.83;;;11.90;97.00;;;;;;5019876;28;20543;-73
2023/04/13 00:59:41;;;;;;;15.17;9.20;;;12.00;97.00;;;;;;5019790;28;20542;-73
2023/04/13 01:02:10;;;;;;;18.63;10.60;;;11.90;96.90;;;;;;5015048;28;20788;-73
2023/04/13 01:04:38;;;;;;;17.87;10.27;;;11.80;96.90;;;;;;5019426;28;20197;-73
2023/04/13 01:07:26;;;;;;;13.53;8.47;;;11.80;96.90;;;;;;5017920;28;20280;-73
2023/04/13 01:10:03;;;;;;;15.03;7.77;;;11.80;96.90;;;;;;4999403;28;20212;-73
2023/04/13 01:12:40;;;;;;;11.80;7.33;;;11.80;97.20;;;;;;5000229;28;20220;-74
2023/04/13 01:15:11;;;;;;;13.93;8.07;;;11.70;97.00;;;;;;5018307;28;20198;-73
2023/04/13 01:17:43;;;;;;;13.83;8.73;;;11.70;97.10;;;;;;5015696;28;20838;-73
2023/04/13 01:20:13;;;;;;;14.70;8.73;;;11.70;97.10;;;;;;5017415;28;20221;-73
2023/04/13 01:22:44;;;;;;;17.73;11.17;;;11.70;97.10;;;;;;5020087;28;20547;-73
2023/04/13 01:25:30;;;;;;;18.27;10.87;;;11.70;97.10;;;;;;5018244;28;20198;-73
2023/04/13 01:28:02;;;;;;;19.83;11.37;;;11.70;97.10;;;;;;5018639;28;20203;-73
2023/04/13 01:30:32;;;;;;;20.20;11.67;;;11.70;97.10;;;;;;5002690;28;20818;-73
2023/04/13 01:33:02;;;;;;;18.67;10.93;;;11.70;97.20;;;;;;5019068;28;20681;-72
2023/04/13 01:35:32;;;;;;;26.90;14.13;;;11.60;97.20;;;;;;5001342;28;20574;-73
2023/04/13 01:37:59;;;;;;;25.70;14.33;;;11.60;97.20;;;;;;5016887;28;20288;-72
2023/04/13 01:40:31;;;;;;;22.27;11.43;;;11.60;97.30;;;;;;5000891;28;20199;-72
2023/04/13 01:43:00;;;;;;;15.33;10.33;;;11.50;97.30;;;;;;5017513;28;20221;-72
2023/04/13 01:45:46;;;;;;;12.73;8.40;;;11.50;97.30;;;;;;5000161;28;20200;-72
2023/04/13 01:48:20;;;;;;;14.13;8.90;;;11.40;97.30;;;;;;4999753;28;20206;-71
2023/04/13 01:51:15;;;;;;;13.20;7.87;;;11.40;97.40;;;;;;5008062;28;20213;-73
2023/04/13 01:53:53;;;;;;;11.77;7.90;;;11.50;97.40;;;;;;4998336;28;20226;-71
2023/04/13 01:56:21;;;;;;;10.87;7.17;;;11.50;97.40;;;;;;5001070;28;20193;-72
2023/04/13 01:58:58;;;;;;;13.87;8.40;;;11.50;97.40;;;;;;5000981;28;20202;-72
2023/04/13 02:01:27;;;;;;;13.77;8.13;;;11.50;97.40;;;;;;5003534;28;20202;-72
2023/04/13 02:03:55;;;;;;;11.97;7.53;;;11.50;97.40;;;;;;4986430;28;20230;-72
2023/04/13 02:06:25;;;;;;;10.83;7.27;;;11.50;97.40;;;;;;4984066;28;20203;-73
2023/04/13 02:08:53;;;;;;;14.43;9.17;;;11.50;97.50;;;;;;4984486;28;20206;-73
2023/04/13 02:11:21;;;;;;;15.77;10.07;;;11.50;97.50;;;;;;4999766;28;20607;-73
2023/04/13 02:13:48;;;;;;;18.97;10.30;;;11.50;97.80;;;;;;5000407;28;20289;-72
2023/04/13 02:16:21;;;;;;;14.40;8.40;;;11.50;97.50;;;;;;4977942;28;20204;-72
2023/04/13 02:18:48;;;;;;;13.43;8.57;;;11.50;97.40;;;;;;4981029;28;20211;-73
2023/04/13 02:21:15;;;;;;;11.87;7.70;;;11.50;97.40;;;;;;4980573;28;20218;-73
2023/04/13 02:23:43;;;;;;;9.67;6.97;;;11.60;97.50;;;;;;4979883;28;20574;-73
2023/04/13 02:26:13;;;;;;;10.53;7.10;;;11.60;97.50;;;;;;4981574;28;20223;-74
2023/04/13 02:28:40;;;;;;;10.57;7.23;;;11.50;97.40;;;;;;4980236;28;20199;-72
2023/04/13 02:31:07;;;;;;;8.40;6.10;;;11.60;97.50;;;;;;4999320;28;20211;-72
2023/04/13 02:33:38;;;;;;;9.67;6.40;;;11.60;97.50;;;;;;4997902;28;20283;-72
2023/04/13 02:36:07;;;;;;;10.40;6.60;;;11.60;97.50;;;;;;4980527;28;20206;-72
2023/04/13 02:38:38;;;;;;;11.60;7.93;;;11.60;97.50;;;;;;4983214;28;20324;-72
2023/04/13 02:41:12;;;;;;;11.97;7.00;;;11.60;97.60;;;;;;4996680;28;20210;-71
2023/04/13 02:43:39;;;;;;;9.03;6.53;;;11.60;97.50;;;;;;4983771;28;20833;-72
2023/04/13 02:46:07;;;;;;;11.17;6.67;;;11.60;97.50;;;;;;4984379;28;20308;-72
2023/04/13 02:48:39;;;;;;;9.20;6.43;;;11.60;97.50;;;;;;4986292;28;20195;-72
2023/04/13 02:51:07;;;;;;;9.83;6.53;;;11.60;97.50;;;;;;5003446;28;20285;-72
2023/04/13 02:53:39;;;;;;;10.43;6.77;;;11.70;97.50;;;;;;4986788;28;20214;-72
2023/04/13 02:56:09;;;;;;;15.67;9.70;;;11.70;97.50;;;;;;4983611;28;20209;-72
2023/04/13 02:58:37;;;;;;;19.07;11.47;;;11.60;97.50;;;;;;4985255;28;20209;-72
2023/04/13 03:01:11;;;;;;;17.27;11.10;;;11.70;97.50;;;;;;4982992;28;20206;-72
2023/04/13 03:03:40;;;;;;;20.80;12.93;;;11.70;97.50;;;;;;4996252;28;20226;-72
2023/04/13 03:06:09;;;;;;;19.60;12.97;;;11.70;97.50;;;;;;5019436;28;20202;-71
2023/04/13 03:08:45;;;;;;;19.63;12.93;;;11.70;97.50;;;;;;5018536;28;20727;-72
2023/04/13 03:11:22;;;;;;;21.50;12.60;;;11.60;97.40;;;;;;5019757;28;20201;-72
2023/04/13 03:14:00;;;;;;;20.50;12.37;;;11.60;97.40;;;;;;5018746;28;20218;-72
2023/04/13 03:16:28;;;;;;;17.20;10.27;;;11.60;97.50;;;;;;5020746;28;20204;-72
2023/04/13 03:18:58;;;;;;;15.63;9.70;;;11.50;97.50;;;;;;5017607;28;20195;-71
2023/04/13 03:21:26;;;;;;;13.53;8.87;;;12.00;97.80;;;;;;5017606;28;20303;-71
2023/04/13 03:24:05;;;;;;;13.33;8.30;;;11.50;97.60;;;;;;5017052;28;20289;-72
2023/04/13 03:26:33;;;;;;;12.90;8.13;;;11.50;97.60;;;;;;5032111;28;20205;-72
2023/04/13 03:29:04;;;;;;;13.77;8.30;;;11.50;97.60;;;;;;5018078;28;20204;-72
2023/04/13 03:31:35;;;;;;;12.13;8.33;;;11.40;97.60;;;;;;5015740;28;20191;-72
2023/04/13 03:34:04;;;;;;;10.93;7.83;;;11.40;97.60;;;;;;5019309;28;20206;-72
2023/04/13 03:36:31;;;;;;;15.57;9.40;;;11.40;97.60;;;;;;5018926;28;20205;-72
2023/04/13 03:39:00;;;;;;;12.93;8.63;;;11.40;97.70;;;;;;5020045;28;20208;-72
2023/04/13 03:41:32;;;;;;;12.93;8.10;;;11.40;97.70;;;;;;5022411;28;20669;-73
2023/04/13 03:43:59;;;;;;;11.47;8.00;;;11.40;97.70;;;;;;5018157;28;20194;-72
2023/04/13 03:46:27;;;;;;;10.63;6.90;;;11.50;97.70;;;;;;5019864;28;20538;-72
2023/04/13 03:48:56;;;;;;;15.03;8.93;;;11.40;97.60;;;;;;5016337;28;20203;-72
2023/04/13 03:51:29;;;;;;;14.80;8.40;;;11.50;97.70;;;;;;5018097;28;20203;-72
2023/04/13 03:53:56;;;;;;;9.43;6.90;;;11.50;97.70;;;;;;5019888;28;20233;-73
2023/04/13 03:56:28;;;;;;;14.57;9.57;;;11.50;97.70;;;;;;5018651;28;20206;-73
2023/04/13 03:58:57;;;;;;;14.37;8.87;;;11.50;97.80;;;;;;5016290;28;20199;-73
2023/04/13 04:01:27;;;;;;;13.70;7.97;;;11.50;97.80;;;;;;5017063;28;20330;-72
2023/04/13 04:03:56;;;;;;;16.97;9.77;;;11.50;97.70;;;;;;5016664;28;20588;-72
2023/04/13 04:06:25;;;;;;;13.20;8.40;;;11.50;97.70;;;;;;5016330;28;20285;-73
2023/04/13 04:09:03;;;;;;;11.80;7.50;;;11.50;97.70;;;;;;5031232;28;20217;-73
2023/04/13 04:11:42;;;;;;;13.77;8.27;;;11.50;97.70;;;;;;5016773;28;20210;-73
2023/04/13 04:14:10;;;;;;;14.07;9.10;;;11.50;97.70;;;;;;5018052;28;20219;-73
2023/04/13 04:16:39;;;;;;;14.83;9.70;;;11.50;97.70;;;;;;5017573;28;20706;-73
2023/04/13 04:19:13;;;;;;;17.27;11.23;;;11.50;97.70;;;;;;5016394;28;20221;-73
2023/04/13 04:21:45;;;;;;;17.60;10.57;;;11.50;97.70;;;;;;5020022;28;20207;-73
2023/04/13 04:24:21;;;;;;;20.57;11.77;;;11.50;97.70;;;;;;5016742;28;20354;-72
2023/04/13 04:26:53;;;;;;;18.93;12.23;;;11.50;97.70;;;;;;5016348;28;20204;-73
2023/04/13 04:29:32;;;;;;;21.97;12.63;;;11.50;97.70;;;;;;5016039;28;20259;-73
2023/04/13 04:32:02;;;;;;;22.73;13.27;;;11.40;97.70;;;;;;5015695;28;20222;-74
2023/04/13 04:34:30;;;;;;;25.03;14.07;;;11.40;97.70;;;;;;5017255;28;20219;-73
2023/04/13 04:36:58;;;;;;;28.27;15.03;;;11.40;97.80;;;;;;5016275;28;20692;-73
2023/04/13 04:39:33;;;;;;;22.60;12.80;;;11.30;97.90;;;;;;5032594;28;20205;-73
2023/04/13 04:42:10;;;;;;;29.30;15.47;;;11.30;97.90;;;;;;5031922;28;20219;-72
2023/04/13 04:44:38;;;;;;;22.80;13.20;;;11.20;98.00;;;;;;5016804;28;20934;-72
2023/04/13 04:47:09;;;;;;;18.67;11.70;;;11.10;98.00;;;;;;5014643;28;20577;-73
2023/04/13 04:49:51;;;;;;;16.93;9.70;;;11.10;98.20;;;;;;5033560;28;20213;-73
2023/04/13 04:52:19;;;;;;;16.90;10.13;;;11.10;98.20;;;;;;5015886;28;20215;-73
2023/04/13 04:54:49;;;;;;;13.43;9.23;;;11.10;98.30;;;;;;5017156;28;20218;-73
2023/04/13 04:57:18;;;;;;;17.77;10.37;;;11.00;98.30;;;;;;5019085;28;20434;-73
2023/04/13 04:59:48;;;;;;;13.90;8.50;;;11.00;98.40;;;;;;5019203;28;20539;-72
2023/04/13 05:02:16;;;;;;;13.50;8.30;;;11.00;98.40;;;;;;5015409;28;20627;-72
2023/04/13 05:04:43;;;;;;;12.87;7.77;;;11.00;98.40;;;;;;5015703;28;20195;-73
2023/04/13 05:07:15;;;;;;;14.17;9.03;;;11.10;98.60;;;;;;5017280;28;20193;-73
2023/04/13 05:09:43;;;;;;;14.37;8.73;;;11.10;98.50;;;;;;4999423;28;20711;-73
2023/04/13 05:12:12;;;;;;;20.17;11.97;;;11.20;98.60;;;;;;5031016;28;20201;-73
2023/04/13 05:14:42;;;;;;;17.90;10.43;;;11.20;98.60;;;;;;5016752;28;20314;-73
2023/04/13 05:17:17;;;;;;;15.97;8.90;;;11.20;98.60;;;;;;5018347;28;20233;-73
2023/04/13 05:19:44;;;;;;;19.93;12.00;;;11.20;98.60;;;;;;5015976;28;20210;-72
2023/04/13 05:22:18;;;;;;;23.40;13.57;;;11.20;98.70;;;;;;5018170;28;20203;-73
2023/04/13 05:24:51;;;;;;;25.97;14.50;;;10.80;98.50;;;;;;5017224;28;20243;-73
2023/04/13 05:27:22;;;;;;;21.40;12.33;;;11.30;98.80;;;;;;5017148;28;20201;-73
2023/04/13 05:29:50;;;;;;;18.17;11.10;;;11.40;98.80;;;;;;5033574;28;20437;-73
2023/04/13 05:32:21;;;;;;;22.07;13.10;;;11.40;98.80;;;;;;5018449;28;20197;-73
2023/04/13 05:34:51;;;;;;;20.53;12.50;;;11.40;98.80;;;;;;5034071;28;20309;-72
2023/04/13 05:37:22;;;;;;;23.63;13.77;;;11.40;98.80;;;;;;5018157;28;20199;-72
2023/04/13 05:39:49;;;;;;;26.27;14.43;;;11.50;98.90;;;;;;5034286;28;20727;-72
2023/04/13 05:42:20;;;;;;;20.53;12.53;;;11.50;98.90;;;;;;5017704;28;20191;-72
2023/04/13 05:44:48;;;;;;;16.30;10.30;;;11.50;98.90;;;;;;5018207;28;20199;-74
2023/04/13 05:47:19;;;;;;;18.97;11.60;;;11.50;98.90;;;;;;5017027;28;20674;-72
2023/04/13 05:49:48;;;;;;;20.80;12.30;;;11.50;98.90;;;;;;5016797;28;20970;-72
2023/04/13 05:52:20;;;;;;;20.90;12.53;;;11.60;99.00;;;;;;5000894;28;20198;-72
2023/04/13 05:54:49;;;;;;;21.23;12.63;;;11.60;99.00;;;;;;5031875;28;20213;-73
2023/04/13 05:57:19;;;;;;;22.90;12.63;;;11.70;99.10;;;;;;5016177;28;20266;-73
2023/04/13 05:59:50;;;;;;;22.43;13.30;;;11.70;99.10;;;;;;5018194;28;20198;-73
2023/04/13 06:02:24;;;;;;;18.20;11.07;;;11.70;99.10;;;;;;5016871;28;22559;-71
2023/04/13 06:04:57;;;;;;;16.70;10.00;;;11.60;99.10;;;;;;5019614;28;20532;-72
2023/04/13 06:07:24;;;;;;;21.33;12.53;;;11.70;99.30;;;;;;5015584;28;20207;-74
2023/04/13 06:09:52;;;;;;;20.30;11.30;;;11.70;99.30;;;;;;5015300;28;20346;-74
2023/04/13 06:12:19;;;;;;;19.17;11.67;;;11.80;99.40;;;;;;5014787;28;20206;-74
2023/04/13 06:14:46;;;;;;;24.23;13.10;;;11.80;99.40;;;;;;5013857;28;22417;-74
2023/04/13 06:17:23;;;;;;;26.90;13.33;;;11.90;99.40;;;;;;5012304;28;20206;-74
2023/04/13 06:19:51;;;;;;;16.97;10.80;;;11.90;99.40;;;;;;5016296;28;20187;-74
2023/04/13 06:22:18;;;;;;;18.37;11.00;;;11.90;99.40;;;;;;5014353;28;20646;-73
2023/04/13 06:24:45;;;;;;;19.67;11.00;;;11.90;99.40;;;;;;5016036;28;20269;-74
2023/04/13 06:27:13;;;;;;;17.40;10.10;;;12.00;99.50;;;;;;5015006;28;20207;-74
2023/04/13 06:29:44;;;;;;;17.43;11.30;;;12.00;99.50;;;;;;5014194;28;20202;-74
2023/04/13 06:32:12;;;;;;;17.87;10.53;;;12.10;99.50;;;;;;5009095;28;20203;-74
2023/04/13 06:34:41;;;;;;;16.13;10.17;;;12.10;99.50;;;;;;5017213;28;20261;-74
2023/04/13 06:37:09;;;;;;;13.20;9.17;;;12.20;99.60;;;;;;5013005;28;20209;-73
2023/04/13 06:39:48;;;;;;;11.30;7.40;;;12.20;99.70;;;;;;5015510;28;20206;-73
2023/04/13 06:42:16;;;;;;;10.57;7.07;;;12.30;99.70;;;;;;5012511;28;20203;-73
2023/04/13 06:45:08;;;;;;;11.20;7.77;;;12.40;99.70;;;;;;4993823;28;20210;-74
2023/04/13 06:47:40;;;;;;;10.20;7.50;;;12.40;99.70;;;;;;5010636;28;20657;-73
2023/04/13 06:50:12;;;;;;;12.93;8.47;;;12.50;99.80;;;;;;5012776;28;22485;-73
2023/04/13 06:52:42;;;;;;;20.57;12.80;;;12.60;99.80;;;;;;5012690;28;20511;-73
2023/04/13 06:55:10;;;;;;;15.53;10.70;;;12.70;99.90;;;;;;5013926;28;20529;-73
2023/04/13 06:57:40;;;;;;;13.87;9.33;;;12.70;99.80;;;;;;5013995;28;20199;-74
2023/04/13 07:00:13;;;;;;;20.90;12.93;;;12.80;99.80;;;;;;5012031;28;20274;-74
2023/04/13 07:02:45;;;;;;;15.00;9.43;;;12.80;99.80;;;;;;5013901;28;20492;-73
2023/04/13 07:05:21;;;;;;;14.30;9.77;;;12.90;99.80;;;;;;5013984;28;20233;-74
2023/04/13 07:07:51;;;;;;;15.03;9.20;;;12.50;99.70;;;;;;5011568;28;20199;-75
2023/04/13 07:10:24;;;;;;;12.80;8.87;;;13.00;99.80;;;;;;5014482;28;20207;-74
2023/04/13 07:13:02;;;;;;;14.73;9.07;;;13.10;99.70;;;;;;5013325;28;20195;-74
2023/04/13 07:15:53;;;;;;;18.03;10.77;;;13.70;99.80;;;;;;5017502;28;20286;-74
2023/04/13 07:18:23;;;;;;;15.90;10.10;;;13.10;99.10;;;;;;5012955;28;20328;-74
2023/04/13 07:20:56;;;;;;;15.93;9.93;;;13.10;99.00;;;;;;5007811;28;20203;-74
2023/04/13 07:23:37;;;;;;;10.63;7.40;;;13.20;99.00;;;;;;5028175;28;20207;-74
2023/04/13 07:26:06;;;;;;;11.50;8.33;;;13.40;98.80;;;;;;5012228;28;20225;-75
2023/04/13 07:28:34;;;;;;;13.30;9.37;;;13.90;99.00;;;;;;5015436;28;20282;-74
2023/04/13 07:31:02;;;;;;;11.80;8.40;;;13.50;98.60;;;;;;5012567;28;20849;-74
2023/04/13 07:33:30;;;;;;;13.23;9.23;;;13.60;98.60;;;;;;5018785;28;20184;-73
2023/04/13 07:35:59;;;;;;;17.00;10.90;;;13.70;98.40;;;;;;5020160;28;20219;-74
2023/04/13 07:38:30;;;;;;;18.30;11.70;;;13.70;98.20;;;;;;5018327;28;20200;-73
2023/04/13 07:40:57;;;;;;;20.30;11.83;;;13.80;98.20;;;;;;5034999;28;20235;-71
2023/04/13 07:43:29;;;;;;;16.47;11.50;;;13.90;97.80;;;;;;5016581;28;20545;-71
2023/04/13 07:45:59;;;;;;;22.73;12.87;;;14.00;97.70;;;;;;5018636;28;21006;-71
2023/04/13 07:48:26;;;;;;;19.63;12.17;;;14.10;97.40;;;;;;5018481;28;20205;-72
2023/04/13 07:50:54;;;;;;;13.20;9.30;;;14.10;97.30;;;;;;5033896;28;20211;-72
2023/04/13 07:53:25;;;;;;;14.80;10.17;;;14.30;97.30;;;;;;5017106;28;20326;-71
2023/04/13 07:55:53;;;;;;;19.07;11.57;;;14.30;97.20;;;;;;5016506;28;20823;-71
2023/04/13 07:58:21;;;;;;;20.03;12.47;;;14.40;96.90;;;;;;5015170;28;20263;-71
2023/04/13 08:00:48;;;;;;;15.83;11.03;;;14.50;96.40;;;;;;5017298;28;20228;-71
2023/04/13 08:03:15;;;;;;;15.27;10.40;;;14.60;96.30;;;;;;5017678;28;20732;-71
2023/04/13 08:05:47;;;;;;;13.43;8.33;;;14.60;96.20;;;;;;5017200;28;20815;-71
2023/04/13 08:08:15;;;;;;;11.83;8.37;;;14.70;96.30;;;;;;5019070;28;20831;-72
2023/04/13 08:10:43;;;;;;;12.20;7.93;;;14.70;96.10;;;;;;5034154;28;20213;-70
2023/04/13 08:13:11;;;;;;;15.97;11.50;;;14.80;95.90;;;;;;5019418;28;20283;-71
2023/04/13 08:15:38;;;;;;;13.83;9.80;;;14.80;95.00;;;;;;5015493;28;20218;-72
2023/04/13 08:18:06;;;;;;;13.27;9.33;;;14.90;95.00;;;;;;5017813;28;20203;-72
2023/04/13 08:20:36;;;;;;;11.03;8.37;;;15.00;94.90;;;;;;5019708;28;20250;-71
2023/04/13 08:23:06;;;;;;;12.93;9.00;;;15.00;94.50;;;;;;5017672;28;20710;-71
2023/04/13 08:25:42;;;;;;;13.20;9.37;;;15.10;94.00;;;;;;5019895;28;20637;-73
2023/04/13 08:28:10;;;;;;;16.77;10.53;;;15.20;93.90;;;;;;5016284;28;20255;-72
2023/04/13 08:30:37;;;;;;;12.60;9.20;;;15.20;93.60;;;;;;5015776;28;20197;-72
2023/04/13 08:33:05;;;;;;;12.93;9.47;;;15.30;93.60;;;;;;5016761;28;20328;-72
2023/04/13 08:35:33;;;;;;;12.57;9.20;;;15.40;93.50;;;;;;5018433;28;20284;-72
2023/04/13 08:38:03;;;;;;;14.30;9.97;;;15.50;93.30;;;;;;5019639;28;20219;-73
2023/04/13 08:40:32;;;;;;;13.03;9.33;;;15.60;92.90;;;;;;5018654;28;20203;-72
2023/04/13 08:43:00;;;;;;;13.60;9.00;;;15.60;92.60;;;;;;5016642;28;20212;-72
2023/04/13 08:45:30;;;;;;;10.33;7.57;;;15.70;92.50;;;;;;5032293;28;20302;-71
2023/04/13 08:47:58;;;;;;;13.30;8.50;;;15.80;92.50;;;;;;5017635;28;20198;-72
2023/04/13 08:50:26;;;;;;;13.17;8.77;;;15.80;91.90;;;;;;5014737;28;20290;-71
2023/04/13 08:52:55;;;;;;;14.47;9.37;;;15.80;91.30;;;;;;5018007;28;20202;-71
2023/04/13 08:55:25;;;;;;;11.93;8.13;;;15.90;90.90;;;;;;5017682;28;20352;-76
2023/04/13 08:57:57;;;;;;;8.37;6.10;;;15.90;91.10;;;;;;5033445;28;20289;-72
2023/04/13 09:00:25;;;;;;;9.50;6.90;;;16.00;91.60;;;;;;5031199;28;20194;-73
2023/04/13 09:02:59;;;;;;;9.07;6.37;;;16.20;91.70;;;;;;5017382;28;20280;-73
2023/04/13 09:05:28;;;;;;;8.50;5.90;;;16.30;91.50;;;;;;5018580;28;20190;-73
2023/04/13 09:08:03;;;;;;;9.43;6.97;;;16.40;91.40;;;;;;5032351;28;20759;-71
2023/04/13 09:10:31;;;;;;;8.13;5.77;;;16.60;91.10;;;;;;5017090;28;20195;-71
2023/04/13 09:12:58;;;;;;;13.03;7.20;;;16.70;90.90;;;;;;5017711;28;20210;-71
2023/04/13 09:15:25;;;;;;;8.67;7.10;;;16.90;90.20;;;;;;5015510;28;20225;-71
2023/04/13 09:18:11;;;;;;;8.37;6.43;;;17.00;89.10;;;;;;5017136;28;20250;-72
2023/04/13 09:20:57;;;;;;;7.00;5.13;;;17.10;88.70;;;;;;5014540;28;20639;-71
2023/04/13 09:23:24;;;;;;;8.97;6.30;;;17.20;88.70;;;;;;5015401;28;20214;-72
2023/04/13 09:26:04;;;;;;;10.03;7.60;;;17.30;87.50;;;;;;5015677;28;20210;-72
2023/04/13 09:28:31;;;;;;;10.63;6.87;;;17.40;85.10;;;;;;5017883;28;20194;-71
2023/04/13 09:31:04;;;;;;;12.23;7.13;;;17.60;84.90;;;;;;5016567;28;20208;-71
2023/04/13 09:33:44;;;;;;;8.97;5.70;;;17.60;81.50;;;;;;5013799;28;20199;-71
2023/04/13 09:36:12;;;;;;;8.23;6.07;;;17.60;82.10;;;;;;5015741;28;20207;-71
2023/04/13 09:38:39;;;;;;;6.37;4.77;;;17.70;81.00;;;;;;5016735;28;20204;-72
2023/04/13 09:41:07;;;;;;;5.40;4.60;;;17.80;81.60;;;;;;5016056;28;20585;-71
2023/04/13 09:43:36;;;;;;;4.23;3.83;;;17.90;81.50;;;;;;5014918;28;20226;-72
2023/04/13 09:46:04;;;;;;;5.07;4.57;;;18.00;81.50;;;;;;5017596;28;20201;-71
2023/04/13 09:48:32;;;;;;;6.60;4.57;;;18.10;80.70;;;;;;5016678;28;20523;-71
2023/04/13 09:51:00;;;;;;;7.85;5.47;;;18.20;79.50;;;;;;5016572;28;20396;-71
2023/04/13 09:53:28;;;;;;;5.27;4.77;;;18.20;76.50;;;;;;5015249;28;20715;-71
2023/04/13 09:55:59;;;;;;;3.97;3.67;;;18.30;76.50;;;;;;5015924;28;20275;-71
2023/04/13 09:58:27;;;;;;;5.25;4.75;;;18.40;77.10;;;;;;5015849;28;20209;-71
2023/04/13 10:00:54;;;;;;;5.20;4.13;;;18.50;76.60;;;;;;5014897;28;20280;-71
2023/04/13 10:03:22;;;;;;;6.65;4.70;;;18.60;76.60;;;;;;5014255;28;20476;-71
2023/04/13 10:05:51;;;;;;;4.88;4.20;;;18.70;74.00;;;;;;5012299;28;20476;-72
2023/04/13 10:08:18;;;;;;;4.70;4.20;;;18.80;73.10;;;;;;5015847;28;20193;-71
2023/04/13 10:10:45;;;;;;;7.87;5.60;;;18.90;72.50;;;;;;5014632;28;20217;-71
2023/04/13 10:13:16;;;;;;;7.95;5.38;;;18.90;70.60;;;;;;5014506;28;20202;-71
2023/04/13 10:15:56;;;;;;;5.85;5.20;;;18.90;70.90;;;;;;5013681;28;20388;-71
2023/04/13 10:18:35;;;;;;;4.82;4.43;;;19.00;70.40;;;;;;5015510;28;20202;-71
2023/04/13 10:21:05;;;;;;;4.07;3.67;;;19.10;70.80;;;;;;5013135;28;20271;-72
2023/04/13 10:23:34;;;;;;;5.40;3.80;;;19.10;71.10;;;;;;5030165;28;20248;-72
2023/04/13 10:26:02;;;;;;;4.70;4.20;;;19.20;69.00;;;;;;5015133;28;20187;-72
2023/04/13 10:28:30;;;;;;;4.72;3.80;;;19.20;66.50;;;;;;5015273;28;20222;-72
2023/04/13 10:30:57;;;;;;;7.18;4.80;;;19.20;67.50;;;;;;5014603;28;20210;-72
2023/04/13 10:33:26;;;;;;;6.13;4.03;;;19.20;67.50;;;;;;5014854;28;20194;-72
2023/04/13 10:35:57;;;;;;;5.63;4.60;;;19.20;66.70;;;;;;5016314;28;20673;-70
2023/04/13 10:38:26;;;;;;;4.78;4.00;;;19.30;66.40;;;;;;5015641;28;20206;-71
2023/04/13 10:40:53;;;;;;;4.10;3.45;;;19.30;66.00;;;;;;5015102;28;20282;-72
2023/04/13 10:43:28;;;;;;;5.00;4.05;;;19.30;65.20;;;;;;5011301;28;20670;-70
2023/04/13 10:46:06;;;;;;;3.60;3.13;;;19.40;64.20;;;;;;5013808;28;20197;-71
2023/04/13 10:48:33;;;;;;;3.78;3.47;;;19.50;64.50;;;;;;5012369;28;20206;-71
2023/04/13 10:51:01;;;;;;;4.30;3.88;;;19.70;63.70;;;;;;5014706;28;20268;-71
2023/04/13 10:53:31;;;;;;;5.45;4.10;;;19.70;61.80;;;;;;5015522;28;20249;-71
2023/04/13 10:56:00;;;;;;;7.05;4.43;;;19.70;60.20;;;;;;5014770;28;20606;-70
2023/04/13 10:58:28;;;;;;;5.13;4.38;;;19.70;60.00;;;;;;5015572;28;20199;-70
2023/04/13 11:00:56;;;;;;;9.82;5.20;;;19.60;60.50;;;;;;5014009;28;20196;-71
2023/04/13 11:03:27;;;;;;;5.32;4.47;;;19.60;60.80;;;;;;5015522;28;20306;-71
2023/04/13 11:05:57;;;;;;;6.20;3.92;;;19.60;61.30;;;;;;5014317;28;20197;-72
2023/04/13 11:08:26;;;;;;;4.38;3.65;;;19.50;61.80;;;;;;5018322;28;20238;-72
2023/04/13 11:10:57;;;;;;;5.50;4.43;;;19.50;62.20;;;;;;5019758;28;20775;-72
2023/04/13 11:13:28;;;;;;;4.35;3.90;;;19.60;59.80;;;;;;5017149;28;20195;-72
2023/04/13 11:16:02;;;;;;;4.57;3.90;;;19.50;59.20;;;;;;5017356;28;20286;-72
2023/04/13 11:18:29;;;;;;;4.38;3.72;;;19.60;59.30;;;;;;5019222;28;20625;-71
2023/04/13 11:20:57;;;;;;;6.80;5.13;;;19.60;59.30;;;;;;5017532;28;20313;-72
2023/04/13 11:23:24;;;;;;;4.80;3.90;;;19.60;59.30;;;;;;5032596;28;20298;-72
2023/04/13 11:25:56;;;;;;;3.97;3.67;;;19.60;59.70;;;;;;5018928;28;20681;-72
2023/04/13 11:28:35;;;;;;;6.72;4.72;;;19.70;60.20;;;;;;5019280;28;20197;-72
2023/04/13 11:31:04;;;;;;;10.85;6.85;;;19.70;60.10;;;;;;5017760;28;20667;-72
2023/04/13 11:33:32;;;;;;;7.00;6.30;;;19.80;63.00;;;;;;5018192;28;20586;-72
2023/04/13 11:36:01;;;;;;;6.28;5.55;;;19.80;64.80;;;;;;5015576;28;20314;-71
2023/04/13 11:38:28;;;;;;;5.40;4.72;;;19.80;65.90;;;;;;5018851;28;20228;-71
2023/04/13 11:41:02;;;;;;;9.77;6.63;;;19.90;66.60;;;;;;5019517;28;20584;-71
2023/04/13 11:43:30;;;;;;;8.48;5.93;;;20.00;66.40;;;;;;5017732;28;20604;-71
2023/04/13 11:45:59;;;;;;;6.53;5.60;;;20.00;66.80;;;;;;5016515;28;20202;-71
2023/04/13 11:48:27;;;;;;;7.70;6.32;;;20.10;67.20;;;;;;5017698;28;20195;-71
2023/04/13 11:50:55;;;;;;;9.82;7.63;;;20.10;67.40;;;;;;5013614;28;20202;-70
2023/04/13 11:53:23;;;;;;;16.98;8.30;;;20.20;68.00;;;;;;5018347;28;20190;-71
2023/04/13 11:55:50;;;;;;;9.07;6.88;;;20.20;69.20;;;;;;5014836;28;20207;-72
2023/04/13 11:58:18;;;;;;;8.68;6.47;;;20.30;69.90;;;;;;5017627;28;20285;-72
2023/04/13 12:00:49;;;;;;;5.95;5.20;;;20.30;70.30;;;;;;5017739;28;20681;-72
2023/04/13 12:03:18;;;;;;;12.02;7.18;;;20.50;70.60;;;;;;5018595;28;20842;-72
2023/04/13 12:05:46;;;;;;;8.38;6.63;;;20.50;69.80;;;;;;5017134;28;20195;-71
2023/04/13 12:08:23;;;;;;;11.00;7.75;;;20.60;69.20;;;;;;5016795;28;20202;-71
2023/04/13 12:10:57;;;;;;;9.98;6.78;;;20.50;70.30;;;;;;5020689;28;20202;-71
2023/04/13 12:13:27;;;;;;;9.98;7.38;;;20.40;69.90;;;;;;5017429;28;20221;-71
2023/04/13 12:15:55;;;;;;;6.68;5.40;;;20.50;70.60;;;;;;5017327;28;20213;-71
2023/04/13 12:18:24;;;;;;;7.05;5.47;;;20.40;70.40;;;;;;5018724;28;20246;-71
2023/04/13 12:20:51;;;;;;;4.20;3.83;;;20.50;70.90;;;;;;5014789;28;20678;-70
2023/04/13 12:23:20;;;;;;;7.70;6.10;;;20.40;70.90;;;;;;5014517;28;20225;-71
2023/04/13 12:25:57;;;;;;;8.60;5.85;;;20.40;71.10;;;;;;5016725;28;20210;-71
2023/04/13 12:28:30;;;;;;;4.82;4.43;;;20.30;71.30;;;;;;5016976;28;20198;-71
2023/04/13 12:31:03;;;;;;;7.38;4.75;;;20.20;71.50;;;;;;5018644;28;20222;-72
2023/04/13 12:33:31;;;;;;;3.97;3.67;;;20.30;72.00;;;;;;5019355;28;20210;-72
2023/04/13 12:35:58;;;;;;;5.63;5.03;;;20.30;72.10;;;;;;5019869;28;20247;-72
2023/04/13 12:38:29;;;;;;;11.75;6.10;;;20.30;72.60;;;;;;5018198;28;20698;-71
2023/04/13 12:40:56;;;;;;;4.85;4.22;;;20.30;73.10;;;;;;5017423;28;20199;-70
2023/04/13 12:43:23;;;;;;;9.57;6.82;;;20.30;73.20;;;;;;5019022;28;20202;-72
2023/04/13 12:45:52;;;;;;;5.40;4.90;;;20.30;73.70;;;;;;5018644;28;20217;-71
2023/04/13 12:48:21;;;;;;;4.15;3.75;;;20.30;73.80;;;;;;5008110;28;20214;-72
2023/04/13 12:50:49;;;;;;;6.00;5.13;;;20.30;74.00;;;;;;5009038;28;20223;-72
2023/04/13 12:53:16;;;;;;;7.28;6.03;;;20.30;74.20;;;;;;5014744;28;20221;-72
2023/04/13 12:55:43;;;;;;;7.43;6.10;;;20.20;74.00;;;;;;5017916;28;20682;-72